Horseshoe Beach, Florida
Current Conditions -  °F | °C
As of 4:15 PM on Monday 22 Dec 2014 (Local Time) from K40J Reporting Station
Thunderstorm Thunderstorm  
Wind Chill: 64°   Ceiling: 400
Heat Index: 64°   Visibility: 1mi
Dew Point: 63°   Wind: 5mph
Humidity: 99%   Direction: 130°SE
Pressure: 29.87"   Gusts: NA
Location:  29.44°N, 83.29°W
Report Text: K40J 222115Z AUTO 13004KT 1SM -TSRA OVC004 18/17 A2987 RMK AO2 VIS 1/4V5 LTG DSNT ALQS P0017 T01750174
Loading
Personal Weather Stations






























Interactive Weather Map New forecast layout! Learn more

10-Day Weather Forecast

Advertisements
Track Severe Weather on mobile